createdAt,value
2023-05-17T00:00:55.869Z,20.90
2023-05-17T00:03:22.583Z,20.30
2023-05-17T00:05:49.433Z,22.42
2023-05-17T00:08:16.198Z,21.70
2023-05-17T00:10:43.287Z,21.45
2023-05-17T00:13:10.621Z,21.77
2023-05-17T00:15:37.317Z,20.33
2023-05-17T00:18:04.144Z,20.95
2023-05-17T00:20:30.978Z,21.08
2023-05-17T00:22:57.654Z,19.83
2023-05-17T00:25:24.356Z,19.65
2023-05-17T00:27:51.823Z,19.35
2023-05-17T00:30:19.054Z,20.33
2023-05-17T00:32:46.857Z,21.10
2023-05-17T00:35:14.034Z,19.73
2023-05-17T00:37:41.272Z,20.30
2023-05-17T00:40:09.077Z,21.75
2023-05-17T00:42:35.833Z,21.50
2023-05-17T00:45:02.870Z,24.08
2023-05-17T00:47:29.744Z,20.50
2023-05-17T00:49:56.640Z,21.02
2023-05-17T00:52:23.376Z,23.20
2023-05-17T00:54:51.333Z,21.15
2023-05-17T00:57:18.324Z,23.85
2023-05-17T00:59:45.730Z,21.23
2023-05-17T01:02:12.562Z,21.55
2023-05-17T01:04:41.460Z,19.58
2023-05-17T01:07:09.670Z,20.15
2023-05-17T01:09:36.860Z,20.08
2023-05-17T01:12:24.767Z,21.17
2023-05-17T01:15:06.636Z,20.90
2023-05-17T01:17:33.488Z,20.95
2023-05-17T01:20:06.486Z,22.33
2023-05-17T01:23:20.080Z,21.20
2023-05-17T01:26:15.400Z,24.13
2023-05-17T01:28:46.589Z,22.38
2023-05-17T01:31:14.032Z,25.80
2023-05-17T01:33:41.000Z,20.77
2023-05-17T01:36:08.413Z,21.33
2023-05-17T01:38:35.763Z,20.35
2023-05-17T01:41:13.395Z,22.17
2023-05-17T01:43:59.960Z,18.60
2023-05-17T01:46:32.103Z,20.80
2023-05-17T01:49:10.874Z,21.35
2023-05-17T01:51:47.362Z,21.52
2023-05-17T01:54:20.215Z,22.55
2023-05-17T01:56:52.005Z,19.63
2023-05-17T01:59:22.905Z,18.52
2023-05-17T02:01:51.137Z,19.23
2023-05-17T02:04:18.822Z,22.92
2023-05-17T02:06:46.016Z,18.73
2023-05-17T02:09:12.969Z,22.02
2023-05-17T02:11:39.865Z,21.58
2023-05-17T02:14:06.537Z,23.17
2023-05-17T02:16:33.173Z,20.13
2023-05-17T02:19:00.063Z,23.38
2023-05-17T02:21:26.716Z,22.52
2023-05-17T02:23:53.627Z,24.10
2023-05-17T02:26:20.838Z,22.65
2023-05-17T02:28:47.576Z,25.58
2023-05-17T02:31:16.754Z,29.60
2023-05-17T02:33:43.504Z,22.02
2023-05-17T02:36:10.870Z,30.13
2023-05-17T02:38:39.309Z,26.80
2023-05-17T02:41:05.981Z,29.30
2023-05-17T02:43:42.567Z,20.80
2023-05-17T02:46:09.289Z,26.95
2023-05-17T02:48:37.037Z,23.77
2023-05-17T02:51:03.775Z,23.92
2023-05-17T02:53:30.713Z,30.10
2023-05-17T02:56:00.230Z,24.90
2023-05-17T02:58:27.095Z,27.00
2023-05-17T03:00:53.846Z,27.15
2023-05-17T03:03:20.821Z,26.05
2023-05-17T03:05:47.726Z,25.83
2023-05-17T03:08:14.562Z,28.15
2023-05-17T03:10:42.028Z,29.55
2023-05-17T03:13:09.950Z,28.42
2023-05-17T03:15:39.364Z,25.75
2023-05-17T03:18:06.390Z,35.58
2023-05-17T03:20:34.035Z,25.60
2023-05-17T03:23:00.664Z,37.38
2023-05-17T03:25:27.536Z,24.45
2023-05-17T03:27:54.598Z,30.35
2023-05-17T03:30:21.929Z,31.58
2023-05-17T03:32:48.680Z,33.88
2023-05-17T03:35:15.751Z,30.77
2023-05-17T03:37:51.913Z,43.72
2023-05-17T03:40:18.896Z,36.85
2023-05-17T03:42:46.128Z,30.63
2023-05-17T03:45:13.068Z,42.65
2023-05-17T03:47:39.843Z,34.60
2023-05-17T03:50:07.643Z,35.42
2023-05-17T03:52:34.737Z,40.78
2023-05-17T03:55:01.418Z,40.13
2023-05-17T03:57:29.238Z,35.50
2023-05-17T03:59:56.188Z,34.60
2023-05-17T04:02:23.421Z,46.90
2023-05-17T04:04:50.972Z,38.20
2023-05-17T04:07:19.015Z,31.13
2023-05-17T04:09:46.563Z,32.15
2023-05-17T04:12:13.263Z,36.08
2023-05-17T04:14:40.210Z,42.67
2023-05-17T04:17:07.089Z,34.10
2023-05-17T04:19:35.071Z,32.22
2023-05-17T04:22:01.902Z,32.10
2023-05-17T04:24:30.389Z,30.10
2023-05-17T04:27:00.738Z,32.38
2023-05-17T04:29:28.695Z,32.75
2023-05-17T04:31:55.558Z,29.00
2023-05-17T04:34:23.855Z,32.80
2023-05-17T04:36:50.954Z,30.45
2023-05-17T04:39:18.077Z,35.97
2023-05-17T04:41:44.730Z,32.60
2023-05-17T04:44:13.704Z,31.77
2023-05-17T04:46:42.002Z,28.50
2023-05-17T04:49:08.697Z,28.08
2023-05-17T04:51:35.808Z,32.13
2023-05-17T04:54:06.694Z,30.08
2023-05-17T04:56:36.309Z,37.78
2023-05-17T04:59:05.402Z,33.65
2023-05-17T05:01:32.732Z,27.58
2023-05-17T05:04:00.000Z,34.72
2023-05-17T05:06:29.202Z,29.88
2023-05-17T05:08:56.121Z,27.17
2023-05-17T05:11:23.461Z,25.98
2023-05-17T05:13:50.541Z,30.33
2023-05-17T05:16:17.266Z,34.47
2023-05-17T05:18:45.033Z,34.50
2023-05-17T05:21:12.861Z,33.70
2023-05-17T05:23:39.673Z,27.20
2023-05-17T05:26:06.692Z,45.20
2023-05-17T05:28:33.549Z,34.78
2023-05-17T05:31:01.033Z,33.05
2023-05-17T05:33:34.745Z,32.72
2023-05-17T05:36:01.787Z,31.42
2023-05-17T05:38:28.500Z,37.72
2023-05-17T05:40:55.248Z,35.75
2023-05-17T05:43:21.997Z,38.65
2023-05-17T05:45:49.571Z,34.38
2023-05-17T05:48:16.649Z,28.98
2023-05-17T05:50:44.211Z,27.20
2023-05-17T05:53:18.696Z,37.97
2023-05-17T05:55:49.873Z,25.38
2023-05-17T05:58:17.080Z,27.33
2023-05-17T06:00:44.658Z,31.02
2023-05-17T06:03:11.352Z,31.60
2023-05-17T06:05:39.129Z,33.58
2023-05-17T06:08:06.631Z,47.90
2023-05-17T06:10:33.525Z,30.55
2023-05-17T06:13:00.346Z,34.38
2023-05-17T06:15:28.124Z,30.17
2023-05-17T06:17:54.849Z,32.30
2023-05-17T06:20:21.575Z,28.55
2023-05-17T06:22:48.208Z,36.33
2023-05-17T06:25:15.083Z,25.35
2023-05-17T06:27:41.790Z,38.95
2023-05-17T06:30:08.950Z,30.73
2023-05-17T06:32:35.664Z,40.28
2023-05-17T06:35:02.979Z,33.15
2023-05-17T06:37:31.037Z,32.00
2023-05-17T06:40:14.772Z,40.67
2023-05-17T06:45:10.536Z,30.77
2023-05-17T06:47:37.351Z,28.38
2023-05-17T06:50:04.304Z,32.25
2023-05-17T06:52:31.010Z,35.17
2023-05-17T06:54:57.637Z,32.78
2023-05-17T06:57:24.947Z,35.78
2023-05-17T06:59:52.155Z,37.63
2023-05-17T07:02:19.551Z,31.77
2023-05-17T07:04:46.722Z,28.98
2023-05-17T07:07:13.416Z,36.00
2023-05-17T07:09:40.172Z,34.90
2023-05-17T07:12:08.958Z,33.88
2023-05-17T07:14:35.942Z,29.77
2023-05-17T07:17:02.624Z,31.65
2023-05-17T07:19:29.611Z,33.50
2023-05-17T07:21:57.195Z,36.75
2023-05-17T07:24:23.906Z,40.80
2023-05-17T07:26:52.286Z,32.92
2023-05-17T07:29:19.383Z,28.50
2023-05-17T07:31:46.129Z,30.08
2023-05-17T07:34:13.641Z,28.70
2023-05-17T07:36:40.451Z,28.92
2023-05-17T07:39:08.688Z,29.90
2023-05-17T07:41:36.008Z,28.88
2023-05-17T07:44:02.658Z,29.80
2023-05-17T07:46:29.348Z,27.88
2023-05-17T07:48:58.309Z,27.85
2023-05-17T07:51:26.119Z,28.25
2023-05-17T07:53:52.766Z,31.45
2023-05-17T07:56:19.536Z,28.65
2023-05-17T07:58:46.204Z,28.73
2023-05-17T08:01:13.070Z,27.75
2023-05-17T08:03:47.658Z,30.60
2023-05-17T08:06:18.595Z,27.63
2023-05-17T08:08:45.615Z,28.48
2023-05-17T08:11:12.944Z,29.02
2023-05-17T08:13:39.595Z,28.63
2023-05-17T08:16:14.214Z,28.00
2023-05-17T08:21:09.647Z,29.25
2023-05-17T08:23:36.632Z,28.02
2023-05-17T08:26:03.335Z,28.38
2023-05-17T08:28:29.982Z,27.98
2023-05-17T08:30:57.880Z,28.38
2023-05-17T08:33:26.037Z,27.67
2023-05-17T08:35:55.112Z,28.13
2023-05-17T08:38:22.224Z,28.23
2023-05-17T08:40:55.930Z,28.08
2023-05-17T08:43:25.241Z,27.05
2023-05-17T08:45:57.331Z,29.02
2023-05-17T08:48:24.188Z,29.73
2023-05-17T08:50:54.083Z,29.92
2023-05-17T08:53:20.804Z,30.17
2023-05-17T08:55:50.542Z,30.88
2023-05-17T08:58:25.626Z,27.23
2023-05-17T09:00:56.152Z,28.88
2023-05-17T09:03:24.430Z,29.77
2023-05-17T09:05:54.316Z,29.13
2023-05-17T09:08:24.237Z,32.78
2023-05-17T09:10:51.237Z,29.65
2023-05-17T09:13:18.012Z,29.10
2023-05-17T09:15:48.159Z,29.75
2023-05-17T09:18:17.732Z,28.88
2023-05-17T09:20:51.582Z,29.58
2023-05-17T09:23:20.963Z,30.98
2023-05-17T09:25:50.832Z,27.98
2023-05-17T09:28:20.456Z,28.73
2023-05-17T09:30:49.148Z,31.20
2023-05-17T09:33:17.787Z,32.55
2023-05-17T09:35:45.727Z,32.95
2023-05-17T09:38:13.633Z,31.85
2023-05-17T09:40:42.193Z,30.08
2023-05-17T09:43:11.286Z,31.77
2023-05-17T09:45:38.563Z,38.47
2023-05-17T09:48:15.977Z,35.08
2023-05-17T09:50:50.890Z,31.35
2023-05-17T09:53:32.369Z,29.92
2023-05-17T09:56:05.607Z,30.33
2023-05-17T09:58:33.393Z,31.80
2023-05-17T10:01:03.691Z,33.05
2023-05-17T10:03:41.029Z,32.05
2023-05-17T10:06:11.528Z,32.33
2023-05-17T10:08:46.220Z,32.08
2023-05-17T10:11:13.175Z,35.42
2023-05-17T10:14:11.348Z,30.08
2023-05-17T10:16:39.235Z,30.73
2023-05-17T10:19:06.687Z,38.10
2023-05-17T10:21:34.293Z,35.03
2023-05-17T10:24:02.958Z,31.02
2023-05-17T10:26:30.404Z,30.10
2023-05-17T10:29:02.045Z,31.20
2023-05-17T10:31:33.541Z,31.33
2023-05-17T10:34:08.022Z,37.33
2023-05-17T10:36:34.828Z,38.38
2023-05-17T10:39:02.730Z,32.85
2023-05-17T10:41:33.614Z,36.17
2023-05-17T10:44:03.361Z,34.92
2023-05-17T10:46:30.839Z,39.65
2023-05-17T10:49:00.216Z,40.75
2023-05-17T10:51:31.397Z,33.28
2023-05-17T10:54:12.184Z,35.28
2023-05-17T10:56:47.651Z,33.50
2023-05-17T10:59:22.683Z,38.92
2023-05-17T11:02:06.597Z,37.35
2023-05-17T11:04:41.872Z,33.95
2023-05-17T11:07:17.825Z,38.55
2023-05-17T11:09:49.078Z,32.45
2023-05-17T11:12:16.817Z,38.65
2023-05-17T11:14:46.173Z,33.42
2023-05-17T11:17:28.291Z,35.35
2023-05-17T11:19:55.222Z,33.13
2023-05-17T11:22:25.848Z,33.30
2023-05-17T11:24:53.902Z,40.65
2023-05-17T11:27:27.146Z,38.85
2023-05-17T11:32:31.202Z,37.42
2023-05-17T11:35:00.672Z,37.40
2023-05-17T11:37:28.937Z,37.25
2023-05-17T11:40:07.912Z,39.80
2023-05-17T11:42:39.314Z,34.60
2023-05-17T11:45:07.103Z,35.40
2023-05-17T11:47:38.424Z,32.75
2023-05-17T11:50:06.523Z,33.33
2023-05-17T11:52:34.117Z,37.15
2023-05-17T11:55:01.328Z,36.10
2023-05-17T11:57:32.194Z,35.08
2023-05-17T12:00:04.250Z,39.72
2023-05-17T12:02:39.258Z,37.80
2023-05-17T12:05:09.073Z,35.30
2023-05-17T12:07:37.228Z,36.65
2023-05-17T12:10:05.778Z,36.13
2023-05-17T12:12:32.495Z,35.92
2023-05-17T12:14:59.709Z,37.60
2023-05-17T12:17:35.564Z,34.55
2023-05-17T12:20:10.175Z,37.85
2023-05-17T12:22:57.419Z,39.65
2023-05-17T12:25:29.474Z,38.70
2023-05-17T12:28:22.117Z,33.75
2023-05-17T12:30:53.689Z,37.13
2023-05-17T12:33:21.109Z,36.33
2023-05-17T12:35:47.943Z,39.90
2023-05-17T12:38:14.707Z,39.90
2023-05-17T12:40:43.333Z,35.65
2023-05-17T12:43:10.342Z,36.65
2023-05-17T12:45:37.015Z,38.22
2023-05-17T12:48:03.906Z,38.15
2023-05-17T12:50:31.278Z,39.72
2023-05-17T12:52:58.533Z,37.58
2023-05-17T12:55:25.309Z,37.58
2023-05-17T12:57:53.734Z,33.13
2023-05-17T13:00:21.492Z,33.20
2023-05-17T13:02:48.375Z,33.78
2023-05-17T13:05:16.067Z,36.08
2023-05-17T13:07:42.716Z,39.95
2023-05-17T13:10:23.570Z,41.80
2023-05-17T13:12:57.890Z,36.25
2023-05-17T13:15:33.969Z,39.58
2023-05-17T13:18:12.495Z,38.88
2023-05-17T13:20:39.362Z,40.15
2023-05-17T13:23:06.509Z,39.95
2023-05-17T13:25:33.140Z,33.58
2023-05-17T13:27:59.795Z,40.22
2023-05-17T13:30:26.882Z,38.20
2023-05-17T13:32:54.613Z,37.75
2023-05-17T13:35:21.461Z,38.35
2023-05-17T13:37:48.312Z,37.17
2023-05-17T13:40:15.357Z,36.53
2023-05-17T13:42:42.024Z,38.13
2023-05-17T13:45:09.237Z,39.08
2023-05-17T13:47:36.115Z,37.22
2023-05-17T13:50:03.952Z,40.85
2023-05-17T13:52:31.285Z,38.42
2023-05-17T13:54:57.920Z,40.35
2023-05-17T13:57:24.601Z,35.95
2023-05-17T13:59:51.262Z,35.60
2023-05-17T14:02:18.348Z,38.83
2023-05-17T14:04:45.007Z,35.65
2023-05-17T14:07:11.897Z,35.67
2023-05-17T14:09:39.651Z,35.58
2023-05-17T14:12:06.624Z,35.08
2023-05-17T14:14:33.498Z,37.92
2023-05-17T14:17:01.738Z,40.30
2023-05-17T14:19:28.576Z,34.80
2023-05-17T14:21:55.441Z,35.25
2023-05-17T14:24:22.274Z,34.10
2023-05-17T14:26:48.956Z,37.00
2023-05-17T14:29:15.708Z,36.67
2023-05-17T14:31:42.448Z,38.75
2023-05-17T14:34:09.546Z,37.13
2023-05-17T14:36:38.098Z,39.58
2023-05-17T14:39:05.381Z,40.65
2023-05-17T14:41:32.114Z,37.80
2023-05-17T14:43:58.832Z,37.20
2023-05-17T14:46:25.507Z,34.08
2023-05-17T14:48:52.314Z,38.58
2023-05-17T14:51:19.817Z,32.33
2023-05-17T14:53:46.546Z,36.20
2023-05-17T14:56:15.054Z,38.85
2023-05-17T14:58:42.520Z,36.83
2023-05-17T15:01:09.398Z,36.20
2023-05-17T15:03:37.473Z,38.03
2023-05-17T15:06:08.200Z,38.65
2023-05-17T15:08:38.973Z,37.15
2023-05-17T15:11:05.693Z,38.25
2023-05-17T15:13:32.317Z,36.25
2023-05-17T15:15:59.325Z,38.15
2023-05-17T15:18:26.166Z,36.88
2023-05-17T15:20:58.255Z,37.63
2023-05-17T15:23:25.092Z,33.47
2023-05-17T15:25:51.731Z,35.40
2023-05-17T15:28:20.745Z,37.78
2023-05-17T15:30:47.698Z,37.97
2023-05-17T15:33:14.428Z,38.88
2023-05-17T15:35:41.641Z,37.72
2023-05-17T15:38:08.489Z,37.88
2023-05-17T15:40:35.140Z,37.28
2023-05-17T15:43:02.059Z,37.60
2023-05-17T15:45:29.237Z,38.03
2023-05-17T15:47:56.979Z,35.97
2023-05-17T15:50:23.923Z,37.97
2023-05-17T15:52:50.676Z,37.55
2023-05-17T15:55:17.498Z,35.83
2023-05-17T15:57:44.277Z,36.42
2023-05-17T16:00:11.682Z,36.58
2023-05-17T16:02:38.685Z,36.63
2023-05-17T16:05:07.148Z,38.35
2023-05-17T16:07:34.251Z,37.55
2023-05-17T16:10:00.904Z,36.28
2023-05-17T16:12:27.553Z,37.05
2023-05-17T16:14:54.155Z,38.92
2023-05-17T16:17:21.085Z,38.58
2023-05-17T16:19:47.784Z,38.38
2023-05-17T16:22:14.837Z,34.35
2023-05-17T16:24:41.894Z,35.97
2023-05-17T16:27:08.549Z,35.05
2023-05-17T16:29:39.589Z,34.17
2023-05-17T16:32:07.760Z,36.45
2023-05-17T16:34:34.441Z,36.17
2023-05-17T16:37:01.136Z,35.45
2023-05-17T16:39:28.645Z,35.85
2023-05-17T16:41:55.718Z,34.65
2023-05-17T16:44:22.359Z,35.40
2023-05-17T16:46:49.140Z,36.05
2023-05-17T16:49:15.881Z,36.28
2023-05-17T16:51:42.568Z,35.40
2023-05-17T16:54:09.401Z,35.97
2023-05-17T16:56:36.497Z,36.20
2023-05-17T16:59:03.206Z,34.30
2023-05-17T17:01:29.879Z,34.70
2023-05-17T17:03:56.600Z,34.05
2023-05-17T17:06:23.404Z,35.08
2023-05-17T17:08:50.143Z,34.63
2023-05-17T17:11:21.677Z,37.95
2023-05-17T17:13:48.861Z,35.35
2023-05-17T17:16:15.635Z,38.33
2023-05-17T17:18:42.952Z,37.58
2023-05-17T17:21:09.715Z,35.40
2023-05-17T17:23:36.555Z,34.70
2023-05-17T17:26:03.230Z,34.90
2023-05-17T17:28:29.912Z,35.35
2023-05-17T17:30:56.653Z,36.88
2023-05-17T17:33:23.307Z,36.00
2023-05-17T17:35:49.967Z,36.33
2023-05-17T17:38:16.801Z,36.13
2023-05-17T17:40:43.580Z,37.05
2023-05-17T17:43:10.273Z,35.40
2023-05-17T17:45:37.137Z,37.17
2023-05-17T17:48:04.053Z,36.53
2023-05-17T17:50:31.332Z,36.85
2023-05-17T17:52:58.598Z,38.05
2023-05-17T17:55:25.546Z,38.92
2023-05-17T17:57:52.180Z,40.35
2023-05-17T18:00:19.357Z,43.63
2023-05-17T18:02:46.193Z,41.95
2023-05-17T18:05:12.903Z,41.40
2023-05-17T18:07:39.947Z,42.35
2023-05-17T18:10:07.183Z,41.38
2023-05-17T18:12:34.087Z,38.80
2023-05-17T18:15:00.785Z,38.88
2023-05-17T18:17:28.334Z,36.35
2023-05-17T18:19:55.439Z,34.53
2023-05-17T18:22:22.140Z,32.20
2023-05-17T18:24:49.357Z,33.58
2023-05-17T18:27:16.734Z,34.05
2023-05-17T18:29:43.488Z,34.00
2023-05-17T18:32:10.303Z,34.38
2023-05-17T18:34:37.370Z,32.53
2023-05-17T18:37:04.855Z,33.15
2023-05-17T18:39:31.473Z,34.45
2023-05-17T18:41:58.135Z,35.45
2023-05-17T18:44:25.270Z,34.30
2023-05-17T18:46:53.622Z,33.28
2023-05-17T18:49:21.356Z,34.13
2023-05-17T18:51:48.333Z,34.63
2023-05-17T18:54:14.995Z,33.83
2023-05-17T18:56:41.658Z,35.83
2023-05-17T18:59:08.372Z,35.33
2023-05-17T19:01:35.318Z,34.42
2023-05-17T19:04:02.130Z,29.27
2023-05-17T19:06:28.966Z,29.63
2023-05-17T19:08:57.956Z,29.40
2023-05-17T19:11:24.943Z,27.38
2023-05-17T19:13:51.583Z,29.15
2023-05-17T19:16:18.317Z,28.90
2023-05-17T19:18:45.303Z,31.23
2023-05-17T19:21:12.484Z,29.27
2023-05-17T19:23:39.251Z,29.02
2023-05-17T19:26:05.906Z,29.92
2023-05-17T19:28:34.799Z,29.35
2023-05-17T19:31:03.633Z,28.42
2023-05-17T19:33:31.833Z,33.22
2023-05-17T19:35:58.585Z,28.80
2023-05-17T19:38:25.281Z,27.92
2023-05-17T19:40:51.946Z,26.77
2023-05-17T19:43:18.591Z,26.38
2023-05-17T19:45:45.410Z,26.80
2023-05-17T19:48:12.601Z,26.67
2023-05-17T19:50:39.282Z,25.33
2023-05-17T19:53:06.276Z,27.50
2023-05-17T19:55:34.198Z,28.15
2023-05-17T19:58:01.111Z,27.52
2023-05-17T20:00:28.047Z,24.85
2023-05-17T20:02:54.902Z,25.88
2023-05-17T20:05:22.138Z,24.85
2023-05-17T20:07:48.794Z,25.48
2023-05-17T20:10:15.590Z,25.52
2023-05-17T20:12:42.260Z,26.40
2023-05-17T20:15:09.598Z,26.05
2023-05-17T20:17:36.564Z,24.75
2023-05-17T20:20:05.089Z,24.98
2023-05-17T20:22:31.872Z,25.35
2023-05-17T20:24:58.641Z,26.40
2023-05-17T20:27:26.476Z,25.35
2023-05-17T20:29:53.284Z,25.90
2023-05-17T20:32:19.940Z,25.75
2023-05-17T20:34:46.589Z,25.65
2023-05-17T20:37:13.232Z,29.20
2023-05-17T20:39:40.104Z,27.02
2023-05-17T20:42:07.623Z,34.75
2023-05-17T20:44:34.356Z,33.47
2023-05-17T20:47:01.181Z,28.10
2023-05-17T20:49:28.033Z,28.42
2023-05-17T20:52:04.390Z,26.65
2023-05-17T20:54:31.229Z,26.27
2023-05-17T20:56:58.297Z,27.52
2023-05-17T20:59:26.337Z,28.38
2023-05-17T21:01:53.184Z,28.05
2023-05-17T21:04:19.930Z,25.95
2023-05-17T21:06:46.883Z,26.77
2023-05-17T21:09:13.720Z,27.67
2023-05-17T21:11:41.209Z,26.02
2023-05-17T21:14:08.052Z,27.15
2023-05-17T21:16:35.276Z,27.13
2023-05-17T21:19:02.272Z,27.30
2023-05-17T21:22:00.942Z,27.23
2023-05-17T21:24:27.644Z,26.77
2023-05-17T21:26:54.729Z,26.65
2023-05-17T21:29:21.417Z,26.75
2023-05-17T21:31:48.212Z,26.65
2023-05-17T21:34:14.966Z,25.95
2023-05-17T21:36:41.632Z,27.10
2023-05-17T21:39:08.339Z,24.25
2023-05-17T21:41:34.989Z,30.65
2023-05-17T21:44:01.683Z,27.00
2023-05-17T21:46:28.512Z,24.85
2023-05-17T21:48:55.206Z,25.88
2023-05-17T21:51:22.207Z,26.80
2023-05-17T21:53:50.335Z,26.75
2023-05-17T21:56:17.054Z,26.92
2023-05-17T21:58:44.104Z,29.40
2023-05-17T22:01:11.406Z,29.27
2023-05-17T22:03:38.247Z,43.63
2023-05-17T22:06:05.642Z,32.15
2023-05-17T22:08:32.833Z,28.13
2023-05-17T22:10:59.502Z,26.75
2023-05-17T22:13:26.609Z,35.22
2023-05-17T22:15:56.842Z,28.98
2023-05-17T22:18:23.696Z,26.95
2023-05-17T22:20:53.079Z,27.60
2023-05-17T22:23:20.502Z,27.70
2023-05-17T22:25:47.167Z,26.73
2023-05-17T22:28:13.830Z,27.33
2023-05-17T22:30:40.629Z,27.00
2023-05-17T22:33:07.466Z,26.45
2023-05-17T22:35:34.107Z,28.67
2023-05-17T22:38:00.799Z,30.02
2023-05-17T22:40:27.524Z,26.58
2023-05-17T22:42:54.401Z,29.60
2023-05-17T22:45:21.231Z,26.90
2023-05-17T22:47:47.928Z,27.00
2023-05-17T22:50:15.430Z,25.88
2023-05-17T22:52:43.045Z,28.92
2023-05-17T22:55:10.792Z,35.63
2023-05-17T22:57:38.196Z,27.05
2023-05-17T23:00:09.270Z,31.08
2023-05-17T23:02:36.186Z,27.73
2023-05-17T23:05:03.161Z,30.75
2023-05-17T23:07:36.759Z,28.17
2023-05-17T23:10:08.332Z,27.33
2023-05-17T23:12:36.424Z,28.17
2023-05-17T23:15:06.803Z,27.65
2023-05-17T23:17:33.639Z,31.27
2023-05-17T23:20:09.773Z,29.05
2023-05-17T23:22:37.763Z,27.20
2023-05-17T23:25:05.789Z,29.92
2023-05-17T23:27:33.407Z,27.92
2023-05-17T23:30:00.833Z,27.70
2023-05-17T23:32:28.514Z,33.63
2023-05-17T23:35:03.107Z,30.65
2023-05-17T23:37:31.476Z,31.88
2023-05-17T23:39:58.478Z,33.88
2023-05-17T23:42:31.925Z,31.98
2023-05-17T23:45:00.426Z,31.30
2023-05-17T23:47:33.263Z,27.85
2023-05-17T23:50:00.552Z,30.40
2023-05-17T23:52:29.720Z,28.05
2023-05-17T23:54:58.792Z,28.60
2023-05-17T23:57:25.527Z,33.95
2023-05-17T23:59:52.177Z,26.55
